sensor_id;sensor_type;location;lat;lon;timestamp;P1;durP1;ratioP1;P2;durP2;ratioP2
14470;SDS011;7321;50.802;4.336;2023-08-20T00:02:10;7.57;;;3.17;;
14470;SDS011;7321;50.802;4.336;2023-08-20T00:04:37;16.75;;;4.10;;
14470;SDS011;7321;50.802;4.336;2023-08-20T00:07:03;13.70;;;3.55;;
14470;SDS011;7321;50.802;4.336;2023-08-20T00:09:29;8.45;;;3.50;;
14470;SDS011;7321;50.802;4.336;2023-08-20T00:11:55;9.68;;;3.42;;
14470;SDS011;7321;50.802;4.336;2023-08-20T00:14:22;11.50;;;4.03;;
14470;SDS011;7321;50.802;4.336;2023-08-20T00:17:16;15.05;;;3.70;;
14470;SDS011;7321;50.802;4.336;2023-08-20T00:19:42;14.02;;;3.88;;
14470;SDS011;7321;50.802;4.336;2023-08-20T00:22:08;7.78;;;3.50;;
14470;SDS011;7321;50.802;4.336;2023-08-20T00:24:34;9.32;;;3.42;;
14470;SDS011;7321;50.802;4.336;2023-08-20T00:27:00;11.85;;;3.47;;
14470;SDS011;7321;50.802;4.336;2023-08-20T00:29:26;12.10;;;3.95;;
14470;SDS011;7321;50.802;4.336;2023-08-20T00:31:52;10.10;;;3.70;;
14470;SDS011;7321;50.802;4.336;2023-08-20T00:34:18;9.98;;;3.15;;
14470;SDS011;7321;50.802;4.336;2023-08-20T00:36:44;7.55;;;3.20;;
14470;SDS011;7321;50.802;4.336;2023-08-20T00:39:09;8.90;;;3.45;;
14470;SDS011;7321;50.802;4.336;2023-08-20T00:41:35;10.25;;;3.00;;
14470;SDS011;7321;50.802;4.336;2023-08-20T00:44:02;8.52;;;3.10;;
14470;SDS011;7321;50.802;4.336;2023-08-20T00:46:29;9.40;;;3.58;;
14470;SDS011;7321;50.802;4.336;2023-08-20T00:48:55;9.85;;;3.58;;
14470;SDS011;7321;50.802;4.336;2023-08-20T00:51:22;8.38;;;3.05;;
14470;SDS011;7321;50.802;4.336;2023-08-20T00:53:48;9.30;;;3.30;;
14470;SDS011;7321;50.802;4.336;2023-08-20T00:56:15;7.75;;;3.35;;
14470;SDS011;7321;50.802;4.336;2023-08-20T00:58:41;7.32;;;3.30;;
14470;SDS011;7321;50.802;4.336;2023-08-20T01:01:07;12.50;;;3.50;;
14470;SDS011;7321;50.802;4.336;2023-08-20T01:03:33;8.02;;;3.15;;
14470;SDS011;7321;50.802;4.336;2023-08-20T01:06:02;9.30;;;3.15;;
14470;SDS011;7321;50.802;4.336;2023-08-20T01:08:39;11.02;;;3.63;;
14470;SDS011;7321;50.802;4.336;2023-08-20T01:11:21;11.35;;;3.88;;
14470;SDS011;7321;50.802;4.336;2023-08-20T01:13:54;10.20;;;3.70;;
14470;SDS011;7321;50.802;4.336;2023-08-20T01:16:20;11.93;;;3.28;;
14470;SDS011;7321;50.802;4.336;2023-08-20T01:18:47;10.68;;;3.20;;
14470;SDS011;7321;50.802;4.336;2023-08-20T01:21:34;9.00;;;3.78;;
14470;SDS011;7321;50.802;4.336;2023-08-20T01:29:36;12.55;;;3.78;;
14470;SDS011;7321;50.802;4.336;2023-08-20T01:32:02;9.20;;;3.70;;
14470;SDS011;7321;50.802;4.336;2023-08-20T01:34:30;12.75;;;4.57;;
14470;SDS011;7321;50.802;4.336;2023-08-20T01:36:56;7.95;;;3.25;;
14470;SDS011;7321;50.802;4.336;2023-08-20T01:39:22;8.77;;;4.30;;
14470;SDS011;7321;50.802;4.336;2023-08-20T01:41:48;9.93;;;3.42;;
14470;SDS011;7321;50.802;4.336;2023-08-20T01:44:14;9.00;;;3.70;;
14470;SDS011;7321;50.802;4.336;2023-08-20T01:46:40;7.70;;;3.50;;
14470;SDS011;7321;50.802;4.336;2023-08-20T01:49:06;9.02;;;3.88;;
14470;SDS011;7321;50.802;4.336;2023-08-20T01:51:32;9.90;;;3.63;;
14470;SDS011;7321;50.802;4.336;2023-08-20T01:53:58;12.27;;;3.65;;
14470;SDS011;7321;50.802;4.336;2023-08-20T01:56:24;7.55;;;3.70;;
14470;SDS011;7321;50.802;4.336;2023-08-20T01:58:49;9.05;;;3.42;;
14470;SDS011;7321;50.802;4.336;2023-08-20T02:01:15;8.10;;;3.28;;
14470;SDS011;7321;50.802;4.336;2023-08-20T02:03:41;9.20;;;4.07;;
14470;SDS011;7321;50.802;4.336;2023-08-20T02:06:07;15.50;;;4.00;;
14470;SDS011;7321;50.802;4.336;2023-08-20T02:08:33;7.15;;;3.45;;
14470;SDS011;7321;50.802;4.336;2023-08-20T02:10:59;8.93;;;3.55;;
14470;SDS011;7321;50.802;4.336;2023-08-20T02:13:26;8.52;;;4.18;;
14470;SDS011;7321;50.802;4.336;2023-08-20T02:15:59;7.75;;;3.50;;
14470;SDS011;7321;50.802;4.336;2023-08-20T02:18:25;10.05;;;4.00;;
14470;SDS011;7321;50.802;4.336;2023-08-20T02:20:51;9.65;;;3.83;;
14470;SDS011;7321;50.802;4.336;2023-08-20T02:23:17;10.43;;;4.15;;
14470;SDS011;7321;50.802;4.336;2023-08-20T02:25:43;10.00;;;3.70;;
14470;SDS011;7321;50.802;4.336;2023-08-20T02:28:09;10.35;;;3.70;;
14470;SDS011;7321;50.802;4.336;2023-08-20T02:30:41;7.18;;;3.15;;
14470;SDS011;7321;50.802;4.336;2023-08-20T02:33:08;6.97;;;3.70;;
14470;SDS011;7321;50.802;4.336;2023-08-20T02:35:35;8.45;;;3.55;;
14470;SDS011;7321;50.802;4.336;2023-08-20T02:38:02;10.23;;;4.00;;
14470;SDS011;7321;50.802;4.336;2023-08-20T02:40:28;7.45;;;3.70;;
14470;SDS011;7321;50.802;4.336;2023-08-20T02:42:54;7.63;;;3.75;;
14470;SDS011;7321;50.802;4.336;2023-08-20T02:45:19;6.78;;;3.85;;
14470;SDS011;7321;50.802;4.336;2023-08-20T02:47:45;8.18;;;4.05;;
14470;SDS011;7321;50.802;4.336;2023-08-20T02:50:11;7.88;;;3.78;;
14470;SDS011;7321;50.802;4.336;2023-08-20T02:52:37;10.50;;;4.30;;
14470;SDS011;7321;50.802;4.336;2023-08-20T02:55:03;8.07;;;3.78;;
14470;SDS011;7321;50.802;4.336;2023-08-20T02:57:31;6.88;;;3.05;;
14470;SDS011;7321;50.802;4.336;2023-08-20T02:59:57;8.80;;;4.00;;
14470;SDS011;7321;50.802;4.336;2023-08-20T03:02:23;6.57;;;3.60;;
14470;SDS011;7321;50.802;4.336;2023-08-20T03:04:49;9.93;;;4.28;;
14470;SDS011;7321;50.802;4.336;2023-08-20T03:07:14;8.82;;;3.40;;
14470;SDS011;7321;50.802;4.336;2023-08-20T03:09:40;6.53;;;3.40;;
14470;SDS011;7321;50.802;4.336;2023-08-20T03:12:06;8.77;;;3.42;;
14470;SDS011;7321;50.802;4.336;2023-08-20T03:14:32;7.35;;;3.50;;
14470;SDS011;7321;50.802;4.336;2023-08-20T03:16:58;6.05;;;3.85;;
14470;SDS011;7321;50.802;4.336;2023-08-20T03:19:24;7.93;;;3.50;;
14470;SDS011;7321;50.802;4.336;2023-08-20T03:21:50;8.73;;;3.90;;
14470;SDS011;7321;50.802;4.336;2023-08-20T03:24:16;10.63;;;3.78;;
14470;SDS011;7321;50.802;4.336;2023-08-20T03:26:42;8.85;;;3.83;;
14470;SDS011;7321;50.802;4.336;2023-08-20T03:29:07;8.80;;;4.10;;
14470;SDS011;7321;50.802;4.336;2023-08-20T03:31:33;9.00;;;4.32;;
14470;SDS011;7321;50.802;4.336;2023-08-20T03:33:59;10.32;;;3.55;;
14470;SDS011;7321;50.802;4.336;2023-08-20T03:36:25;11.70;;;4.25;;
14470;SDS011;7321;50.802;4.336;2023-08-20T03:38:51;5.88;;;3.47;;
14470;SDS011;7321;50.802;4.336;2023-08-20T03:41:16;7.90;;;3.90;;
14470;SDS011;7321;50.802;4.336;2023-08-20T03:43:42;6.55;;;3.33;;
14470;SDS011;7321;50.802;4.336;2023-08-20T03:46:08;9.18;;;3.78;;
14470;SDS011;7321;50.802;4.336;2023-08-20T03:48:34;10.35;;;3.75;;
14470;SDS011;7321;50.802;4.336;2023-08-20T03:51:00;9.13;;;3.80;;
14470;SDS011;7321;50.802;4.336;2023-08-20T03:53:25;8.88;;;3.83;;
14470;SDS011;7321;50.802;4.336;2023-08-20T03:55:51;10.77;;;3.97;;
14470;SDS011;7321;50.802;4.336;2023-08-20T03:58:17;10.63;;;3.95;;
14470;SDS011;7321;50.802;4.336;2023-08-20T04:00:43;10.25;;;3.78;;
14470;SDS011;7321;50.802;4.336;2023-08-20T04:03:09;6.35;;;3.45;;
14470;SDS011;7321;50.802;4.336;2023-08-20T04:05:38;7.05;;;3.67;;
14470;SDS011;7321;50.802;4.336;2023-08-20T04:08:05;7.93;;;3.40;;
14470;SDS011;7321;50.802;4.336;2023-08-20T04:10:31;9.15;;;3.83;;
14470;SDS011;7321;50.802;4.336;2023-08-20T04:12:58;10.70;;;3.70;;
14470;SDS011;7321;50.802;4.336;2023-08-20T04:15:24;8.45;;;3.70;;
14470;SDS011;7321;50.802;4.336;2023-08-20T04:17:49;12.05;;;3.70;;
14470;SDS011;7321;50.802;4.336;2023-08-20T04:20:15;7.45;;;3.30;;
14470;SDS011;7321;50.802;4.336;2023-08-20T04:22:42;10.13;;;3.67;;
14470;SDS011;7321;50.802;4.336;2023-08-20T04:25:08;9.45;;;4.00;;
14470;SDS011;7321;50.802;4.336;2023-08-20T04:27:33;9.88;;;4.07;;
14470;SDS011;7321;50.802;4.336;2023-08-20T04:29:59;7.97;;;3.58;;
14470;SDS011;7321;50.802;4.336;2023-08-20T04:32:25;6.95;;;3.55;;
14470;SDS011;7321;50.802;4.336;2023-08-20T04:34:51;8.20;;;3.80;;
14470;SDS011;7321;50.802;4.336;2023-08-20T04:37:18;6.50;;;3.90;;
14470;SDS011;7321;50.802;4.336;2023-08-20T04:39:44;9.35;;;4.25;;
14470;SDS011;7321;50.802;4.336;2023-08-20T04:42:10;8.27;;;4.55;;
14470;SDS011;7321;50.802;4.336;2023-08-20T04:44:36;11.05;;;4.25;;
14470;SDS011;7321;50.802;4.336;2023-08-20T04:47:02;9.98;;;4.55;;
14470;SDS011;7321;50.802;4.336;2023-08-20T04:49:28;8.82;;;4.15;;
14470;SDS011;7321;50.802;4.336;2023-08-20T04:51:55;9.02;;;4.32;;
14470;SDS011;7321;50.802;4.336;2023-08-20T04:54:21;11.38;;;4.05;;
14470;SDS011;7321;50.802;4.336;2023-08-20T04:56:46;6.05;;;3.65;;
14470;SDS011;7321;50.802;4.336;2023-08-20T04:59:12;8.68;;;4.15;;
14470;SDS011;7321;50.802;4.336;2023-08-20T05:01:38;8.60;;;3.92;;
14470;SDS011;7321;50.802;4.336;2023-08-20T05:04:04;9.18;;;4.32;;
14470;SDS011;7321;50.802;4.336;2023-08-20T05:06:31;10.00;;;4.57;;
14470;SDS011;7321;50.802;4.336;2023-08-20T05:08:56;9.20;;;4.85;;
14470;SDS011;7321;50.802;4.336;2023-08-20T05:11:22;9.88;;;4.78;;
14470;SDS011;7321;50.802;4.336;2023-08-20T05:13:49;8.45;;;4.32;;
14470;SDS011;7321;50.802;4.336;2023-08-20T05:16:15;7.75;;;4.00;;
14470;SDS011;7321;50.802;4.336;2023-08-20T05:18:41;6.97;;;3.67;;
14470;SDS011;7321;50.802;4.336;2023-08-20T05:21:07;9.52;;;4.07;;
14470;SDS011;7321;50.802;4.336;2023-08-20T05:23:33;10.90;;;4.20;;
14470;SDS011;7321;50.802;4.336;2023-08-20T05:25:59;7.55;;;3.55;;
14470;SDS011;7321;50.802;4.336;2023-08-20T05:28:26;7.47;;;3.60;;
14470;SDS011;7321;50.802;4.336;2023-08-20T05:30:53;8.60;;;3.80;;
14470;SDS011;7321;50.802;4.336;2023-08-20T05:33:21;7.35;;;3.80;;
14470;SDS011;7321;50.802;4.336;2023-08-20T05:35:47;8.55;;;3.97;;
14470;SDS011;7321;50.802;4.336;2023-08-20T05:38:13;9.68;;;4.30;;
14470;SDS011;7321;50.802;4.336;2023-08-20T05:40:39;7.10;;;3.97;;
14470;SDS011;7321;50.802;4.336;2023-08-20T05:43:05;9.52;;;4.40;;
14470;SDS011;7321;50.802;4.336;2023-08-20T05:45:31;7.38;;;3.92;;
14470;SDS011;7321;50.802;4.336;2023-08-20T05:47:56;11.45;;;4.13;;
14470;SDS011;7321;50.802;4.336;2023-08-20T05:50:22;11.63;;;4.20;;
14470;SDS011;7321;50.802;4.336;2023-08-20T05:52:48;7.00;;;4.07;;
14470;SDS011;7321;50.802;4.336;2023-08-20T05:55:14;7.15;;;3.67;;
14470;SDS011;7321;50.802;4.336;2023-08-20T05:57:41;10.75;;;3.55;;
14470;SDS011;7321;50.802;4.336;2023-08-20T06:00:08;7.30;;;3.83;;
14470;SDS011;7321;50.802;4.336;2023-08-20T06:02:35;8.85;;;4.03;;
14470;SDS011;7321;50.802;4.336;2023-08-20T06:05:02;6.43;;;3.63;;
14470;SDS011;7321;50.802;4.336;2023-08-20T06:07:31;6.55;;;3.83;;
14470;SDS011;7321;50.802;4.336;2023-08-20T06:09:57;9.32;;;3.65;;
14470;SDS011;7321;50.802;4.336;2023-08-20T06:12:23;9.43;;;3.67;;
14470;SDS011;7321;50.802;4.336;2023-08-20T06:14:49;6.72;;;3.70;;
14470;SDS011;7321;50.802;4.336;2023-08-20T06:17:15;6.85;;;3.20;;
14470;SDS011;7321;50.802;4.336;2023-08-20T06:19:41;9.93;;;3.20;;
14470;SDS011;7321;50.802;4.336;2023-08-20T06:22:07;7.90;;;3.42;;
14470;SDS011;7321;50.802;4.336;2023-08-20T06:24:32;11.20;;;4.13;;
14470;SDS011;7321;50.802;4.336;2023-08-20T06:26:58;6.50;;;3.05;;
14470;SDS011;7321;50.802;4.336;2023-08-20T06:29:24;7.63;;;3.85;;
14470;SDS011;7321;50.802;4.336;2023-08-20T06:31:50;13.38;;;4.35;;
14470;SDS011;7321;50.802;4.336;2023-08-20T06:34:16;6.65;;;3.10;;
14470;SDS011;7321;50.802;4.336;2023-08-20T06:36:42;11.52;;;3.70;;
14470;SDS011;7321;50.802;4.336;2023-08-20T06:39:08;6.50;;;3.22;;
14470;SDS011;7321;50.802;4.336;2023-08-20T06:41:34;6.78;;;3.22;;
14470;SDS011;7321;50.802;4.336;2023-08-20T06:44:01;6.15;;;2.75;;
14470;SDS011;7321;50.802;4.336;2023-08-20T06:46:29;7.70;;;2.97;;
14470;SDS011;7321;50.802;4.336;2023-08-20T06:48:55;10.57;;;2.97;;
14470;SDS011;7321;50.802;4.336;2023-08-20T06:51:21;8.23;;;2.85;;
14470;SDS011;7321;50.802;4.336;2023-08-20T06:53:48;7.30;;;2.97;;
14470;SDS011;7321;50.802;4.336;2023-08-20T06:56:14;5.07;;;2.40;;
14470;SDS011;7321;50.802;4.336;2023-08-20T06:58:41;5.85;;;2.20;;
14470;SDS011;7321;50.802;4.336;2023-08-20T07:01:07;9.45;;;2.90;;
14470;SDS011;7321;50.802;4.336;2023-08-20T07:03:37;6.28;;;2.40;;
14470;SDS011;7321;50.802;4.336;2023-08-20T07:06:07;6.28;;;2.55;;
14470;SDS011;7321;50.802;4.336;2023-08-20T07:08:34;7.35;;;2.53;;
14470;SDS011;7321;50.802;4.336;2023-08-20T07:11:00;4.57;;;2.45;;
14470;SDS011;7321;50.802;4.336;2023-08-20T07:13:26;7.72;;;3.15;;
14470;SDS011;7321;50.802;4.336;2023-08-20T07:15:52;7.07;;;2.58;;
14470;SDS011;7321;50.802;4.336;2023-08-20T07:18:18;5.43;;;2.45;;
14470;SDS011;7321;50.802;4.336;2023-08-20T07:20:44;7.10;;;2.80;;
14470;SDS011;7321;50.802;4.336;2023-08-20T07:23:10;13.45;;;8.88;;
14470;SDS011;7321;50.802;4.336;2023-08-20T07:25:37;10.90;;;3.03;;
14470;SDS011;7321;50.802;4.336;2023-08-20T07:28:04;5.80;;;2.70;;
14470;SDS011;7321;50.802;4.336;2023-08-20T07:30:30;4.20;;;2.40;;
14470;SDS011;7321;50.802;4.336;2023-08-20T07:32:56;6.50;;;2.80;;
14470;SDS011;7321;50.802;4.336;2023-08-20T07:35:22;7.15;;;2.70;;
14470;SDS011;7321;50.802;4.336;2023-08-20T07:37:49;5.78;;;2.40;;
14470;SDS011;7321;50.802;4.336;2023-08-20T07:40:14;6.65;;;2.70;;
14470;SDS011;7321;50.802;4.336;2023-08-20T07:42:40;4.15;;;2.30;;
14470;SDS011;7321;50.802;4.336;2023-08-20T07:45:07;6.22;;;2.70;;
14470;SDS011;7321;50.802;4.336;2023-08-20T07:47:35;7.57;;;2.75;;
14470;SDS011;7321;50.802;4.336;2023-08-20T07:50:02;6.03;;;2.80;;
14470;SDS011;7321;50.802;4.336;2023-08-20T07:52:30;4.65;;;2.22;;
14470;SDS011;7321;50.802;4.336;2023-08-20T07:54:59;5.85;;;2.35;;
14470;SDS011;7321;50.802;4.336;2023-08-20T07:57:25;5.03;;;2.40;;
14470;SDS011;7321;50.802;4.336;2023-08-20T07:59:51;6.53;;;2.35;;
14470;SDS011;7321;50.802;4.336;2023-08-20T08:02:17;8.90;;;2.63;;
14470;SDS011;7321;50.802;4.336;2023-08-20T08:04:43;5.95;;;2.33;;
14470;SDS011;7321;50.802;4.336;2023-08-20T08:07:09;7.40;;;2.75;;
14470;SDS011;7321;50.802;4.336;2023-08-20T08:09:36;8.77;;;2.65;;
14470;SDS011;7321;50.802;4.336;2023-08-20T08:12:02;8.98;;;2.78;;
14470;SDS011;7321;50.802;4.336;2023-08-20T08:14:29;6.70;;;2.50;;
14470;SDS011;7321;50.802;4.336;2023-08-20T08:16:55;4.00;;;2.28;;
14470;SDS011;7321;50.802;4.336;2023-08-20T08:19:21;7.10;;;2.25;;
14470;SDS011;7321;50.802;4.336;2023-08-20T08:21:47;6.20;;;2.33;;
14470;SDS011;7321;50.802;4.336;2023-08-20T08:24:14;4.93;;;1.67;;
14470;SDS011;7321;50.802;4.336;2023-08-20T08:26:40;6.18;;;2.45;;
14470;SDS011;7321;50.802;4.336;2023-08-20T08:29:06;6.68;;;2.28;;
14470;SDS011;7321;50.802;4.336;2023-08-20T08:31:33;4.65;;;2.20;;
14470;SDS011;7321;50.802;4.336;2023-08-20T08:33:59;5.50;;;2.03;;
14470;SDS011;7321;50.802;4.336;2023-08-20T08:36:28;5.57;;;3.00;;
14470;SDS011;7321;50.802;4.336;2023-08-20T08:38:54;4.13;;;1.77;;
14470;SDS011;7321;50.802;4.336;2023-08-20T08:41:21;4.97;;;3.08;;
14470;SDS011;7321;50.802;4.336;2023-08-20T08:43:51;5.13;;;2.17;;
14470;SDS011;7321;50.802;4.336;2023-08-20T08:46:19;4.18;;;2.97;;
14470;SDS011;7321;50.802;4.336;2023-08-20T08:48:46;4.18;;;1.63;;
14470;SDS011;7321;50.802;4.336;2023-08-20T08:51:13;5.10;;;1.90;;
14470;SDS011;7321;50.802;4.336;2023-08-20T08:53:39;3.58;;;1.58;;
14470;SDS011;7321;50.802;4.336;2023-08-20T08:56:09;4.55;;;2.22;;
14470;SDS011;7321;50.802;4.336;2023-08-20T08:58:36;4.10;;;1.90;;
14470;SDS011;7321;50.802;4.336;2023-08-20T09:01:02;3.78;;;1.90;;
14470;SDS011;7321;50.802;4.336;2023-08-20T09:03:28;2.67;;;1.40;;
14470;SDS011;7321;50.802;4.336;2023-08-20T09:06:07;6.18;;;1.60;;
14470;SDS011;7321;50.802;4.336;2023-08-20T09:08:34;4.57;;;1.30;;
14470;SDS011;7321;50.802;4.336;2023-08-20T09:11:00;1.95;;;0.98;;
14470;SDS011;7321;50.802;4.336;2023-08-20T09:13:33;2.38;;;1.00;;
14470;SDS011;7321;50.802;4.336;2023-08-20T09:16:04;1.38;;;0.90;;
14470;SDS011;7321;50.802;4.336;2023-08-20T09:18:31;2.03;;;1.00;;
14470;SDS011;7321;50.802;4.336;2023-08-20T09:21:09;2.88;;;0.98;;
14470;SDS011;7321;50.802;4.336;2023-08-20T09:23:36;2.30;;;0.95;;
14470;SDS011;7321;50.802;4.336;2023-08-20T09:26:03;2.10;;;1.20;;
14470;SDS011;7321;50.802;4.336;2023-08-20T09:28:54;3.38;;;1.20;;
14470;SDS011;7321;50.802;4.336;2023-08-20T09:31:19;1.15;;;0.82;;
14470;SDS011;7321;50.802;4.336;2023-08-20T09:33:52;3.03;;;1.48;;
14470;SDS011;7321;50.802;4.336;2023-08-20T09:36:19;1.48;;;0.90;;
14470;SDS011;7321;50.802;4.336;2023-08-20T09:38:54;2.63;;;1.33;;
14470;SDS011;7321;50.802;4.336;2023-08-20T09:41:20;2.97;;;1.20;;
14470;SDS011;7321;50.802;4.336;2023-08-20T09:43:48;2.10;;;1.27;;
14470;SDS011;7321;50.802;4.336;2023-08-20T09:46:18;1.77;;;1.10;;
14470;SDS011;7321;50.802;4.336;2023-08-20T09:48:45;4.55;;;1.83;;
14470;SDS011;7321;50.802;4.336;2023-08-20T09:51:13;2.22;;;1.27;;
14470;SDS011;7321;50.802;4.336;2023-08-20T09:53:45;2.78;;;1.17;;
14470;SDS011;7321;50.802;4.336;2023-08-20T09:56:24;2.88;;;1.40;;
14470;SDS011;7321;50.802;4.336;2023-08-20T09:59:00;2.67;;;1.35;;
14470;SDS011;7321;50.802;4.336;2023-08-20T10:01:27;2.65;;;1.52;;
14470;SDS011;7321;50.802;4.336;2023-08-20T10:03:53;2.92;;;1.00;;
14470;SDS011;7321;50.802;4.336;2023-08-20T10:06:19;2.35;;;1.08;;
14470;SDS011;7321;50.802;4.336;2023-08-20T10:08:46;4.55;;;1.42;;
14470;SDS011;7321;50.802;4.336;2023-08-20T10:11:14;4.22;;;1.25;;
14470;SDS011;7321;50.802;4.336;2023-08-20T10:13:41;3.55;;;1.67;;
14470;SDS011;7321;50.802;4.336;2023-08-20T10:16:12;3.10;;;1.42;;
14470;SDS011;7321;50.802;4.336;2023-08-20T10:18:39;2.15;;;1.25;;
14470;SDS011;7321;50.802;4.336;2023-08-20T10:21:05;3.05;;;1.33;;
14470;SDS011;7321;50.802;4.336;2023-08-20T10:23:34;2.15;;;1.38;;
14470;SDS011;7321;50.802;4.336;2023-08-20T10:26:07;2.17;;;1.40;;
14470;SDS011;7321;50.802;4.336;2023-08-20T10:28:34;2.75;;;1.50;;
14470;SDS011;7321;50.802;4.336;2023-08-20T10:33:35;2.10;;;1.27;;
14470;SDS011;7321;50.802;4.336;2023-08-20T10:36:22;5.55;;;1.63;;
14470;SDS011;7321;50.802;4.336;2023-08-20T10:38:55;2.50;;;1.42;;
14470;SDS011;7321;50.802;4.336;2023-08-20T10:41:26;2.78;;;1.20;;
14470;SDS011;7321;50.802;4.336;2023-08-20T10:43:56;3.70;;;1.55;;
14470;SDS011;7321;50.802;4.336;2023-08-20T10:46:24;3.00;;;1.38;;
14470;SDS011;7321;50.802;4.336;2023-08-20T10:48:51;2.90;;;1.60;;
14470;SDS011;7321;50.802;4.336;2023-08-20T10:51:35;3.25;;;1.60;;
14470;SDS011;7321;50.802;4.336;2023-08-20T10:59:14;2.88;;;1.60;;
14470;SDS011;7321;50.802;4.336;2023-08-20T11:01:47;2.67;;;1.63;;
14470;SDS011;7321;50.802;4.336;2023-08-20T11:04:19;3.83;;;1.92;;
14470;SDS011;7321;50.802;4.336;2023-08-20T11:06:46;4.35;;;2.03;;
14470;SDS011;7321;50.802;4.336;2023-08-20T11:09:14;4.25;;;1.52;;
14470;SDS011;7321;50.802;4.336;2023-08-20T11:11:41;5.63;;;2.10;;
14470;SDS011;7321;50.802;4.336;2023-08-20T11:14:08;3.97;;;2.08;;
14470;SDS011;7321;50.802;4.336;2023-08-20T11:16:40;4.05;;;1.70;;
14470;SDS011;7321;50.802;4.336;2023-08-20T11:19:07;2.83;;;1.55;;
14470;SDS011;7321;50.802;4.336;2023-08-20T11:21:39;4.18;;;2.03;;
14470;SDS011;7321;50.802;4.336;2023-08-20T11:24:07;5.97;;;1.70;;
14470;SDS011;7321;50.802;4.336;2023-08-20T11:26:33;3.35;;;1.60;;
14470;SDS011;7321;50.802;4.336;2023-08-20T11:32:32;4.05;;;1.42;;
14470;SDS011;7321;50.802;4.336;2023-08-20T11:35:05;2.70;;;1.42;;
14470;SDS011;7321;50.802;4.336;2023-08-20T11:38:31;2.20;;;1.23;;
14470;SDS011;7321;50.802;4.336;2023-08-20T11:44:55;4.95;;;1.60;;
14470;SDS011;7321;50.802;4.336;2023-08-20T11:47:37;2.95;;;1.70;;
14470;SDS011;7321;50.802;4.336;2023-08-20T11:50:09;4.47;;;2.50;;
14470;SDS011;7321;50.802;4.336;2023-08-20T11:52:38;5.30;;;3.00;;
14470;SDS011;7321;50.802;4.336;2023-08-20T11:55:07;3.22;;;1.70;;
14470;SDS011;7321;50.802;4.336;2023-08-20T11:57:34;4.30;;;1.58;;
14470;SDS011;7321;50.802;4.336;2023-08-20T12:00:23;3.50;;;1.35;;
14470;SDS011;7321;50.802;4.336;2023-08-20T12:02:55;3.10;;;1.45;;
14470;SDS011;7321;50.802;4.336;2023-08-20T12:05:21;3.70;;;1.75;;
14470;SDS011;7321;50.802;4.336;2023-08-20T12:07:55;2.45;;;1.40;;
14470;SDS011;7321;50.802;4.336;2023-08-20T12:10:23;3.58;;;1.58;;
14470;SDS011;7321;50.802;4.336;2023-08-20T12:12:49;4.68;;;2.08;;
14470;SDS011;7321;50.802;4.336;2023-08-20T12:15:16;5.03;;;1.30;;
14470;SDS011;7321;50.802;4.336;2023-08-20T12:17:44;1.83;;;1.20;;
14470;SDS011;7321;50.802;4.336;2023-08-20T12:20:30;5.40;;;4.80;;
14470;SDS011;7321;50.802;4.336;2023-08-20T12:22:59;5.15;;;4.53;;
14470;SDS011;7321;50.802;4.336;2023-08-20T12:25:26;5.07;;;2.58;;
14470;SDS011;7321;50.802;4.336;2023-08-20T12:27:55;4.40;;;1.90;;
14470;SDS011;7321;50.802;4.336;2023-08-20T12:30:24;5.60;;;2.42;;
14470;SDS011;7321;50.802;4.336;2023-08-20T12:32:49;2.33;;;1.70;;
14470;SDS011;7321;50.802;4.336;2023-08-20T12:35:15;3.83;;;1.98;;
14470;SDS011;7321;50.802;4.336;2023-08-20T12:37:41;4.25;;;1.55;;
14470;SDS011;7321;50.802;4.336;2023-08-20T12:40:07;3.60;;;1.73;;
14470;SDS011;7321;50.802;4.336;2023-08-20T12:42:38;3.72;;;1.92;;
14470;SDS011;7321;50.802;4.336;2023-08-20T12:45:06;4.72;;;1.50;;
14470;SDS011;7321;50.802;4.336;2023-08-20T12:47:32;3.63;;;1.50;;
14470;SDS011;7321;50.802;4.336;2023-08-20T12:49:59;4.68;;;1.40;;
14470;SDS011;7321;50.802;4.336;2023-08-20T12:52:25;3.78;;;1.77;;
14470;SDS011;7321;50.802;4.336;2023-08-20T12:54:51;2.60;;;1.33;;
14470;SDS011;7321;50.802;4.336;2023-08-20T12:57:17;4.75;;;1.95;;
14470;SDS011;7321;50.802;4.336;2023-08-20T12:59:43;3.35;;;1.70;;
14470;SDS011;7321;50.802;4.336;2023-08-20T13:02:10;4.03;;;1.50;;
14470;SDS011;7321;50.802;4.336;2023-08-20T13:04:36;2.22;;;1.58;;
14470;SDS011;7321;50.802;4.336;2023-08-20T13:07:02;3.22;;;1.80;;
14470;SDS011;7321;50.802;4.336;2023-08-20T13:09:29;2.42;;;1.55;;
14470;SDS011;7321;50.802;4.336;2023-08-20T13:11:56;2.17;;;1.70;;
14470;SDS011;7321;50.802;4.336;2023-08-20T13:14:26;3.38;;;1.73;;
14470;SDS011;7321;50.802;4.336;2023-08-20T13:16:52;4.60;;;1.77;;
14470;SDS011;7321;50.802;4.336;2023-08-20T13:19:18;3.35;;;1.92;;
14470;SDS011;7321;50.802;4.336;2023-08-20T13:21:44;2.50;;;1.80;;
14470;SDS011;7321;50.802;4.336;2023-08-20T13:24:10;3.25;;;1.73;;
14470;SDS011;7321;50.802;4.336;2023-08-20T13:26:36;5.50;;;1.70;;
14470;SDS011;7321;50.802;4.336;2023-08-20T13:29:02;3.53;;;1.80;;
14470;SDS011;7321;50.802;4.336;2023-08-20T13:31:28;4.72;;;1.80;;
14470;SDS011;7321;50.802;4.336;2023-08-20T13:33:54;3.53;;;1.70;;
14470;SDS011;7321;50.802;4.336;2023-08-20T13:36:20;3.22;;;1.58;;
14470;SDS011;7321;50.802;4.336;2023-08-20T13:38:45;4.32;;;1.50;;
14470;SDS011;7321;50.802;4.336;2023-08-20T13:41:11;2.70;;;1.58;;
14470;SDS011;7321;50.802;4.336;2023-08-20T13:43:37;1.85;;;1.48;;
14470;SDS011;7321;50.802;4.336;2023-08-20T13:46:06;2.55;;;1.50;;
14470;SDS011;7321;50.802;4.336;2023-08-20T13:48:34;3.65;;;1.50;;
14470;SDS011;7321;50.802;4.336;2023-08-20T13:51:01;4.63;;;1.70;;
14470;SDS011;7321;50.802;4.336;2023-08-20T13:53:27;4.28;;;1.80;;
14470;SDS011;7321;50.802;4.336;2023-08-20T13:55:53;2.58;;;1.42;;
14470;SDS011;7321;50.802;4.336;2023-08-20T13:58:20;5.47;;;1.73;;
14470;SDS011;7321;50.802;4.336;2023-08-20T14:00:46;2.13;;;1.33;;
14470;SDS011;7321;50.802;4.336;2023-08-20T14:03:12;3.08;;;1.70;;
14470;SDS011;7321;50.802;4.336;2023-08-20T14:05:38;3.50;;;1.67;;
14470;SDS011;7321;50.802;4.336;2023-08-20T14:08:04;3.13;;;1.73;;
14470;SDS011;7321;50.802;4.336;2023-08-20T14:10:30;12.68;;;2.03;;
14470;SDS011;7321;50.802;4.336;2023-08-20T14:12:56;2.97;;;1.42;;
14470;SDS011;7321;50.802;4.336;2023-08-20T14:15:22;4.50;;;1.77;;
14470;SDS011;7321;50.802;4.336;2023-08-20T14:17:57;3.30;;;1.38;;
14470;SDS011;7321;50.802;4.336;2023-08-20T14:20:23;4.60;;;1.65;;
14470;SDS011;7321;50.802;4.336;2023-08-20T14:22:49;3.20;;;1.42;;
14470;SDS011;7321;50.802;4.336;2023-08-20T14:25:15;4.13;;;1.63;;
14470;SDS011;7321;50.802;4.336;2023-08-20T14:27:44;2.30;;;1.77;;
14470;SDS011;7321;50.802;4.336;2023-08-20T14:30:10;4.15;;;1.75;;
14470;SDS011;7321;50.802;4.336;2023-08-20T14:32:36;5.40;;;1.95;;
14470;SDS011;7321;50.802;4.336;2023-08-20T14:35:02;2.83;;;1.55;;
14470;SDS011;7321;50.802;4.336;2023-08-20T14:37:31;3.35;;;1.50;;
14470;SDS011;7321;50.802;4.336;2023-08-20T14:39:57;3.72;;;1.90;;
14470;SDS011;7321;50.802;4.336;2023-08-20T14:42:23;4.13;;;1.48;;
14470;SDS011;7321;50.802;4.336;2023-08-20T14:44:49;3.70;;;1.85;;
14470;SDS011;7321;50.802;4.336;2023-08-20T14:47:19;4.18;;;1.98;;
14470;SDS011;7321;50.802;4.336;2023-08-20T14:49:44;3.58;;;1.42;;
14470;SDS011;7321;50.802;4.336;2023-08-20T14:52:10;2.75;;;1.80;;
14470;SDS011;7321;50.802;4.336;2023-08-20T14:54:36;3.60;;;1.77;;
14470;SDS011;7321;50.802;4.336;2023-08-20T14:57:03;3.10;;;1.63;;
14470;SDS011;7321;50.802;4.336;2023-08-20T14:59:29;2.78;;;1.70;;
14470;SDS011;7321;50.802;4.336;2023-08-20T15:01:55;2.80;;;1.50;;
14470;SDS011;7321;50.802;4.336;2023-08-20T15:04:25;3.25;;;1.70;;
14470;SDS011;7321;50.802;4.336;2023-08-20T15:06:51;3.60;;;1.60;;
14470;SDS011;7321;50.802;4.336;2023-08-20T15:09:17;5.20;;;1.88;;
14470;SDS011;7321;50.802;4.336;2023-08-20T15:11:43;4.35;;;2.00;;
14470;SDS011;7321;50.802;4.336;2023-08-20T15:14:09;3.83;;;1.73;;
14470;SDS011;7321;50.802;4.336;2023-08-20T15:16:35;2.42;;;1.85;;
14470;SDS011;7321;50.802;4.336;2023-08-20T15:19:01;3.75;;;1.40;;
14470;SDS011;7321;50.802;4.336;2023-08-20T15:21:27;2.97;;;1.55;;
14470;SDS011;7321;50.802;4.336;2023-08-20T15:23:53;3.25;;;1.52;;